NDF241 ESSA-EDDB
Flight info
| Callsign | NDF241 |
|---|---|
| Flight time | 1h 26m |
| Altitude | 38000 |
| Route | PETEV N872 ELPAX DCT BIKRU/N0450F370 DCT RODEP T280 KETAP KETAP1R |
| Aircraft | A320/M-SDE3FGHIRWY/LB1 |
Departure
| Time | 2026-05-05 16:09 |
|---|---|
| Airport | Stockholm-Arlanda Airport (ESSA) |
Arrival
| Time | 2026-05-05 17:36 |
|---|---|
| Airport | Berlin Brandenburg Airport (EDDB) |
| Time | Latitude | Longitude | Altitude | Speed | Heading |
|---|---|---|---|---|---|
| 2026-05-05 15:28 | 59.65399 | 17.93531 | 112 ft | 0 kts | 76° |
| 2026-05-05 15:29 | 59.65399 | 17.93530 | 112 ft | 0 kts | 76° |
| 2026-05-05 15:30 | 59.65398 | 17.93530 | 112 ft | 0 kts | 76° |
| 2026-05-05 15:37 | 59.65398 | 17.93529 | 112 ft | 0 kts | 76° |
| 2026-05-05 15:45 | 59.65398 | 17.93528 | 112 ft | 0 kts | 76° |
| 2026-05-05 15:52 | 59.65398 | 17.93527 | 112 ft | 0 kts | 76° |
| 2026-05-05 15:53 | 59.65396 | 17.93507 | 112 ft | 2 kts | 76° |
| 2026-05-05 15:54 | 59.65392 | 17.93476 | 110 ft | 2 kts | 76° |
| 2026-05-05 15:54 | 59.65388 | 17.93445 | 110 ft | 2 kts | 76° |
| 2026-05-05 15:54 | 59.65383 | 17.93415 | 111 ft | 2 kts | 37° |
| 2026-05-05 15:54 | 59.65370 | 17.93395 | 109 ft | 2 kts | 24° |
| 2026-05-05 15:55 | 59.65358 | 17.93389 | 110 ft | 0 kts | 348° |
| 2026-05-05 15:59 | 59.65359 | 17.93389 | 110 ft | 2 kts | 348° |
| 2026-05-05 15:59 | 59.65392 | 17.93375 | 110 ft | 6 kts | 348° |
| 2026-05-05 15:59 | 59.65430 | 17.93359 | 111 ft | 3 kts | 347° |
| 2026-05-05 15:59 | 59.65465 | 17.93346 | 112 ft | 10 kts | 351° |
| 2026-05-05 16:00 | 59.65530 | 17.93309 | 112 ft | 8 kts | 312° |
| 2026-05-05 16:00 | 59.65523 | 17.93186 | 112 ft | 10 kts | 255° |
| 2026-05-05 16:00 | 59.65501 | 17.93042 | 111 ft | 12 kts | 252° |
| 2026-05-05 16:00 | 59.65475 | 17.92890 | 112 ft | 10 kts | 249° |
| 2026-05-05 16:01 | 59.65444 | 17.92743 | 111 ft | 13 kts | 244° |
| 2026-05-05 16:01 | 59.65389 | 17.92594 | 111 ft | 13 kts | 226° |
| 2026-05-05 16:01 | 59.65337 | 17.92506 | 111 ft | 8 kts | 216° |
| 2026-05-05 16:01 | 59.65298 | 17.92454 | 111 ft | 5 kts | 208° |
| 2026-05-05 16:02 | 59.65269 | 17.92427 | 111 ft | 4 kts | 205° |
| 2026-05-05 16:02 | 59.65251 | 17.92410 | 111 ft | 2 kts | 202° |
| 2026-05-05 16:02 | 59.65241 | 17.92403 | 111 ft | 1 kts | 200° |
| 2026-05-05 16:02 | 59.65212 | 17.92388 | 112 ft | 7 kts | 192° |
| 2026-05-05 16:03 | 59.65157 | 17.92365 | 112 ft | 8 kts | 191° |
| 2026-05-05 16:03 | 59.65105 | 17.92345 | 112 ft | 9 kts | 191° |
| 2026-05-05 16:03 | 59.65042 | 17.92322 | 112 ft | 9 kts | 190° |
| 2026-05-05 16:03 | 59.64986 | 17.92302 | 112 ft | 8 kts | 190° |
| 2026-05-05 16:04 | 59.64907 | 17.92275 | 112 ft | 15 kts | 189° |
| 2026-05-05 16:04 | 59.64813 | 17.92243 | 112 ft | 13 kts | 190° |
| 2026-05-05 16:04 | 59.64730 | 17.92213 | 112 ft | 11 kts | 190° |
| 2026-05-05 16:04 | 59.64652 | 17.92185 | 112 ft | 12 kts | 190° |
| 2026-05-05 16:05 | 59.64573 | 17.92156 | 112 ft | 13 kts | 191° |
| 2026-05-05 16:05 | 59.64492 | 17.92125 | 113 ft | 11 kts | 191° |
| 2026-05-05 16:05 | 59.64419 | 17.92098 | 114 ft | 12 kts | 191° |
| 2026-05-05 16:05 | 59.64348 | 17.92055 | 112 ft | 10 kts | 217° |
| 2026-05-05 16:06 | 59.64323 | 17.91916 | 113 ft | 12 kts | 239° |
| 2026-05-05 16:06 | 59.64247 | 17.91868 | 114 ft | 11 kts | 186° |
| 2026-05-05 16:06 | 59.64138 | 17.91832 | 114 ft | 18 kts | 191° |
| 2026-05-05 16:06 | 59.64013 | 17.91787 | 113 ft | 19 kts | 190° |
| 2026-05-05 16:07 | 59.63870 | 17.91734 | 109 ft | 22 kts | 197° |
| 2026-05-05 16:07 | 59.63774 | 17.91595 | 105 ft | 15 kts | 220° |
| 2026-05-05 16:07 | 59.63727 | 17.91487 | 107 ft | 8 kts | 251° |
| 2026-05-05 16:07 | 59.63732 | 17.91402 | 108 ft | 5 kts | 291° |
| 2026-05-05 16:08 | 59.63751 | 17.91348 | 110 ft | 6 kts | 316° |
| 2026-05-05 16:08 | 59.63795 | 17.91345 | 110 ft | 7 kts | 13° |
| 2026-05-05 16:08 | 59.63911 | 17.91392 | 108 ft | 44 kts | 10° |
| 2026-05-05 16:08 | 59.64457 | 17.91586 | 109 ft | 111 kts | 10° |
| 2026-05-05 16:09 | 59.65400 | 17.91936 | 133 ft | 160 kts | 7° |
| 2026-05-05 16:09 | 59.66491 | 17.92378 | 730 ft | 160 kts | 6° |
| 2026-05-05 16:09 | 59.67589 | 17.92770 | 1522 ft | 160 kts | 4° |
| 2026-05-05 16:09 | 59.68684 | 17.92586 | 2126 ft | 164 kts | 334° |
| 2026-05-05 16:10 | 59.69600 | 17.91085 | 2503 ft | 184 kts | 300° |
| 2026-05-05 16:10 | 59.69873 | 17.88543 | 3027 ft | 199 kts | 265° |
| 2026-05-05 16:10 | 59.69623 | 17.85816 | 3787 ft | 202 kts | 261° |
| 2026-05-05 16:10 | 59.69342 | 17.83084 | 4642 ft | 205 kts | 260° |
| 2026-05-05 16:11 | 59.69056 | 17.80305 | 4980 ft | 207 kts | 260° |
| 2026-05-05 16:11 | 59.67799 | 17.71476 | 6722 ft | 251 kts | 253° |
| 2026-05-05 16:12 | 59.67190 | 17.68181 | 7486 ft | 259 kts | 243° |
| 2026-05-05 16:12 | 59.64371 | 17.63678 | 9278 ft | 275 kts | 200° |
| 2026-05-05 16:13 | 59.58482 | 17.60080 | 10683 ft | 327 kts | 200° |
| 2026-05-05 16:13 | 59.56266 | 17.58726 | 11222 ft | 337 kts | 201° |
| 2026-05-05 16:13 | 59.54053 | 17.57337 | 12009 ft | 338 kts | 206° |
| 2026-05-05 16:14 | 59.50126 | 17.52543 | 13639 ft | 330 kts | 227° |
| 2026-05-05 16:14 | 59.46717 | 17.46515 | 15196 ft | 328 kts | 227° |
| 2026-05-05 16:15 | 59.43332 | 17.40554 | 16825 ft | 325 kts | 228° |
| 2026-05-05 16:15 | 59.39971 | 17.34666 | 18396 ft | 323 kts | 228° |
| 2026-05-05 16:16 | 59.36601 | 17.28769 | 19579 ft | 327 kts | 228° |
| 2026-05-05 16:16 | 59.33167 | 17.22769 | 20665 ft | 334 kts | 228° |
| 2026-05-05 16:17 | 59.29655 | 17.16647 | 21563 ft | 342 kts | 227° |
| 2026-05-05 16:17 | 59.27867 | 17.13540 | 22069 ft | 345 kts | 227° |
| 2026-05-05 16:18 | 59.24238 | 17.07270 | 23060 ft | 351 kts | 227° |
| 2026-05-05 16:18 | 59.22399 | 17.04106 | 23509 ft | 354 kts | 227° |
| 2026-05-05 16:18 | 59.18657 | 16.97742 | 24281 ft | 359 kts | 226° |
| 2026-05-05 16:19 | 59.16737 | 16.94606 | 24662 ft | 361 kts | 226° |
| 2026-05-05 16:19 | 59.14794 | 16.91478 | 25036 ft | 364 kts | 225° |
| 2026-05-05 16:19 | 59.10864 | 16.85180 | 25762 ft | 368 kts | 225° |
| 2026-05-05 16:20 | 59.06901 | 16.78797 | 26437 ft | 372 kts | 226° |
| 2026-05-05 16:20 | 59.02890 | 16.72313 | 27075 ft | 377 kts | 226° |
| 2026-05-05 16:21 | 58.98827 | 16.65765 | 27707 ft | 381 kts | 225° |
| 2026-05-05 16:22 | 58.92668 | 16.55915 | 28604 ft | 387 kts | 225° |
| 2026-05-05 16:22 | 58.88500 | 16.49265 | 29140 ft | 390 kts | 225° |
| 2026-05-05 16:23 | 58.84287 | 16.42573 | 29695 ft | 392 kts | 225° |
| 2026-05-05 16:23 | 58.82180 | 16.39240 | 29912 ft | 393 kts | 225° |
| 2026-05-05 16:23 | 58.77944 | 16.32550 | 30423 ft | 393 kts | 225° |
| 2026-05-05 16:24 | 58.75828 | 16.29211 | 30709 ft | 393 kts | 225° |
| 2026-05-05 16:24 | 58.73714 | 16.25880 | 30998 ft | 392 kts | 225° |
| 2026-05-05 16:24 | 58.69490 | 16.19250 | 31569 ft | 391 kts | 225° |
| 2026-05-05 16:25 | 58.67380 | 16.15946 | 31851 ft | 391 kts | 225° |
| 2026-05-05 16:25 | 58.63163 | 16.09348 | 32426 ft | 390 kts | 225° |
| 2026-05-05 16:25 | 58.61060 | 16.06059 | 32719 ft | 390 kts | 225° |
| 2026-05-05 16:26 | 58.56845 | 15.99501 | 33193 ft | 391 kts | 224° |
| 2026-05-05 16:26 | 58.52653 | 15.92991 | 33751 ft | 390 kts | 224° |
| 2026-05-05 16:27 | 58.50542 | 15.89723 | 34019 ft | 390 kts | 224° |
| 2026-05-05 16:27 | 58.48432 | 15.86465 | 34237 ft | 390 kts | 224° |
| 2026-05-05 16:27 | 58.46313 | 15.83205 | 34452 ft | 391 kts | 224° |
| 2026-05-05 16:27 | 58.44193 | 15.79950 | 34660 ft | 392 kts | 224° |
| 2026-05-05 16:28 | 58.42065 | 15.76689 | 34858 ft | 393 kts | 224° |
| 2026-05-05 16:28 | 58.39931 | 15.73423 | 35054 ft | 394 kts | 224° |
| 2026-05-05 16:28 | 58.37795 | 15.70150 | 35251 ft | 394 kts | 224° |
| 2026-05-05 16:28 | 58.35654 | 15.66871 | 35371 ft | 396 kts | 224° |
| 2026-05-05 16:29 | 58.33500 | 15.63577 | 35500 ft | 398 kts | 223° |
| 2026-05-05 16:29 | 58.31336 | 15.60273 | 35647 ft | 400 kts | 223° |
| 2026-05-05 16:29 | 58.29161 | 15.56956 | 35816 ft | 401 kts | 223° |
| 2026-05-05 16:29 | 58.26983 | 15.53632 | 35990 ft | 402 kts | 223° |
| 2026-05-05 16:30 | 58.24802 | 15.50311 | 36168 ft | 402 kts | 223° |
| 2026-05-05 16:30 | 58.22614 | 15.46993 | 36347 ft | 403 kts | 223° |
| 2026-05-05 16:30 | 58.20424 | 15.43681 | 36518 ft | 403 kts | 223° |
| 2026-05-05 16:30 | 58.18229 | 15.40368 | 36678 ft | 404 kts | 223° |
| 2026-05-05 16:31 | 58.16027 | 15.37050 | 36834 ft | 404 kts | 223° |
| 2026-05-05 16:31 | 58.13823 | 15.33732 | 36989 ft | 405 kts | 223° |
| 2026-05-05 16:31 | 58.11591 | 15.30467 | 37145 ft | 408 kts | 218° |
| 2026-05-05 16:31 | 58.09102 | 15.27830 | 37253 ft | 415 kts | 208° |
| 2026-05-05 16:32 | 58.06339 | 15.26088 | 37394 ft | 423 kts | 198° |
| 2026-05-05 16:32 | 58.03435 | 15.24993 | 37533 ft | 426 kts | 197° |
| 2026-05-05 16:32 | 58.00531 | 15.23916 | 37673 ft | 426 kts | 197° |
| 2026-05-05 16:32 | 57.97620 | 15.22826 | 37846 ft | 426 kts | 197° |
| 2026-05-05 16:33 | 57.91784 | 15.20622 | 37897 ft | 428 kts | 197° |
| 2026-05-05 16:33 | 57.85931 | 15.18424 | 37899 ft | 429 kts | 197° |
| 2026-05-05 16:34 | 57.81063 | 15.16610 | 37895 ft | 429 kts | 197° |
| 2026-05-05 16:34 | 57.75202 | 15.14437 | 37895 ft | 429 kts | 197° |
| 2026-05-05 16:35 | 57.69347 | 15.12263 | 37896 ft | 429 kts | 197° |
| 2026-05-05 16:35 | 57.62536 | 15.09731 | 37900 ft | 429 kts | 197° |
| 2026-05-05 16:36 | 57.57623 | 15.07912 | 37886 ft | 430 kts | 197° |
| 2026-05-05 16:36 | 57.51754 | 15.05757 | 37878 ft | 430 kts | 197° |
| 2026-05-05 16:37 | 57.45881 | 15.03610 | 37891 ft | 430 kts | 197° |
| 2026-05-05 16:37 | 57.40053 | 15.01474 | 37896 ft | 430 kts | 197° |
| 2026-05-05 16:38 | 57.34184 | 14.99332 | 37904 ft | 430 kts | 197° |
| 2026-05-05 16:38 | 57.28301 | 14.97206 | 37873 ft | 430 kts | 197° |
| 2026-05-05 16:39 | 57.22423 | 14.95090 | 37902 ft | 430 kts | 197° |
| 2026-05-05 16:39 | 57.16550 | 14.92968 | 37910 ft | 430 kts | 197° |
| 2026-05-05 16:40 | 57.10678 | 14.90843 | 37914 ft | 430 kts | 197° |
| 2026-05-05 16:40 | 57.04806 | 14.88731 | 37913 ft | 430 kts | 197° |
| 2026-05-05 16:41 | 56.98934 | 14.86640 | 37875 ft | 430 kts | 196° |
| 2026-05-05 16:41 | 56.93057 | 14.84554 | 37883 ft | 431 kts | 196° |
| 2026-05-05 16:42 | 56.87174 | 14.82473 | 37888 ft | 430 kts | 196° |
| 2026-05-05 16:42 | 56.81294 | 14.80380 | 37897 ft | 430 kts | 196° |
| 2026-05-05 16:43 | 56.75411 | 14.78306 | 37880 ft | 431 kts | 196° |
| 2026-05-05 16:43 | 56.69523 | 14.76237 | 37899 ft | 431 kts | 196° |
| 2026-05-05 16:44 | 56.63636 | 14.74173 | 37904 ft | 431 kts | 196° |
| 2026-05-05 16:44 | 56.57745 | 14.72116 | 37912 ft | 431 kts | 196° |
| 2026-05-05 16:45 | 56.51899 | 14.70081 | 37915 ft | 431 kts | 196° |
| 2026-05-05 16:45 | 56.46012 | 14.68039 | 37896 ft | 431 kts | 196° |
| 2026-05-05 16:46 | 56.40124 | 14.65992 | 37903 ft | 431 kts | 196° |
| 2026-05-05 16:46 | 56.34236 | 14.63960 | 37908 ft | 431 kts | 196° |
| 2026-05-05 16:47 | 56.28345 | 14.61938 | 37912 ft | 430 kts | 196° |
| 2026-05-05 16:47 | 56.22461 | 14.59920 | 37890 ft | 430 kts | 195° |
| 2026-05-05 16:48 | 56.16580 | 14.57915 | 37893 ft | 430 kts | 195° |
| 2026-05-05 16:48 | 56.10736 | 14.55922 | 37907 ft | 430 kts | 195° |
| 2026-05-05 16:49 | 56.04853 | 14.53930 | 37910 ft | 430 kts | 195° |
| 2026-05-05 16:49 | 55.98968 | 14.51939 | 37906 ft | 431 kts | 195° |
| 2026-05-05 16:50 | 55.93068 | 14.49955 | 37884 ft | 431 kts | 195° |
| 2026-05-05 16:50 | 55.87181 | 14.47978 | 37901 ft | 431 kts | 195° |
| 2026-05-05 16:51 | 55.81287 | 14.46000 | 37905 ft | 431 kts | 195° |
| 2026-05-05 16:51 | 55.75389 | 14.44032 | 37910 ft | 431 kts | 195° |
| 2026-05-05 16:52 | 55.69489 | 14.42056 | 37884 ft | 431 kts | 195° |
| 2026-05-05 16:52 | 55.63585 | 14.40082 | 37901 ft | 432 kts | 195° |
| 2026-05-05 16:53 | 55.57736 | 14.38134 | 37914 ft | 432 kts | 195° |
| 2026-05-05 16:53 | 55.51761 | 14.36171 | 37918 ft | 432 kts | 195° |
| 2026-05-05 16:54 | 55.45850 | 14.34236 | 37906 ft | 432 kts | 195° |
| 2026-05-05 16:54 | 55.39983 | 14.32317 | 37918 ft | 431 kts | 195° |
| 2026-05-05 16:55 | 55.34084 | 14.30378 | 37929 ft | 431 kts | 195° |
| 2026-05-05 16:55 | 55.28193 | 14.28452 | 37932 ft | 431 kts | 195° |
| 2026-05-05 16:56 | 55.22302 | 14.26536 | 37930 ft | 430 kts | 195° |
| 2026-05-05 16:56 | 55.16418 | 14.24627 | 37932 ft | 430 kts | 195° |
| 2026-05-05 16:57 | 55.10529 | 14.22723 | 37935 ft | 430 kts | 195° |
| 2026-05-05 16:57 | 55.04643 | 14.20822 | 37934 ft | 430 kts | 195° |
| 2026-05-05 16:58 | 54.98749 | 14.18931 | 37934 ft | 431 kts | 195° |
| 2026-05-05 16:58 | 54.92853 | 14.17042 | 37908 ft | 430 kts | 195° |
| 2026-05-05 16:59 | 54.86978 | 14.15061 | 37924 ft | 430 kts | 197° |
| 2026-05-05 16:59 | 54.81136 | 14.12900 | 37934 ft | 429 kts | 197° |
| 2026-05-05 17:00 | 54.75300 | 14.10725 | 37937 ft | 429 kts | 197° |
| 2026-05-05 17:00 | 54.69463 | 14.08600 | 37915 ft | 428 kts | 197° |
| 2026-05-05 17:01 | 54.63626 | 14.06506 | 37928 ft | 428 kts | 197° |
| 2026-05-05 17:01 | 54.57789 | 14.04406 | 37932 ft | 429 kts | 197° |
| 2026-05-05 17:02 | 54.51947 | 14.02318 | 37935 ft | 429 kts | 197° |
| 2026-05-05 17:02 | 54.46140 | 14.00258 | 37940 ft | 429 kts | 197° |
| 2026-05-05 17:03 | 54.40293 | 13.98180 | 37925 ft | 428 kts | 197° |
| 2026-05-05 17:03 | 54.34456 | 13.96097 | 37934 ft | 428 kts | 197° |
| 2026-05-05 17:04 | 54.28626 | 13.94032 | 37937 ft | 428 kts | 197° |
| 2026-05-05 17:04 | 54.22798 | 13.91980 | 37938 ft | 428 kts | 197° |
| 2026-05-05 17:05 | 54.16977 | 13.89918 | 37238 ft | 428 kts | 197° |
| 2026-05-05 17:05 | 54.14064 | 13.88890 | 36103 ft | 426 kts | 197° |
| 2026-05-05 17:05 | 54.11198 | 13.87895 | 35338 ft | 416 kts | 198° |
| 2026-05-05 17:06 | 54.08364 | 13.86914 | 34572 ft | 415 kts | 198° |
| 2026-05-05 17:06 | 54.05540 | 13.85930 | 33785 ft | 415 kts | 199° |
| 2026-05-05 17:06 | 54.02709 | 13.84939 | 32799 ft | 416 kts | 199° |
| 2026-05-05 17:06 | 53.99873 | 13.83942 | 31893 ft | 416 kts | 198° |
| 2026-05-05 17:07 | 53.97075 | 13.82958 | 30974 ft | 417 kts | 198° |
| 2026-05-05 17:07 | 53.94224 | 13.81961 | 29938 ft | 420 kts | 197° |
| 2026-05-05 17:07 | 53.91344 | 13.80960 | 28808 ft | 423 kts | 197° |
| 2026-05-05 17:07 | 53.88459 | 13.79960 | 27737 ft | 424 kts | 197° |
| 2026-05-05 17:08 | 53.85582 | 13.78965 | 27082 ft | 418 kts | 197° |
| 2026-05-05 17:08 | 53.82751 | 13.77992 | 26384 ft | 413 kts | 197° |
| 2026-05-05 17:08 | 53.79948 | 13.77030 | 25686 ft | 409 kts | 197° |
| 2026-05-05 17:08 | 53.77171 | 13.76078 | 25008 ft | 406 kts | 196° |
| 2026-05-05 17:09 | 53.74408 | 13.75123 | 24341 ft | 403 kts | 197° |
| 2026-05-05 17:09 | 53.71839 | 13.73608 | 24150 ft | 380 kts | 211° |
| 2026-05-05 17:09 | 53.69518 | 13.71486 | 24057 ft | 382 kts | 212° |
| 2026-05-05 17:09 | 53.67179 | 13.69314 | 23978 ft | 384 kts | 212° |
| 2026-05-05 17:10 | 53.64839 | 13.67129 | 23901 ft | 389 kts | 212° |
| 2026-05-05 17:10 | 53.62432 | 13.64867 | 23905 ft | 403 kts | 212° |
| 2026-05-05 17:10 | 53.59961 | 13.62540 | 23906 ft | 409 kts | 212° |
| 2026-05-05 17:10 | 53.57475 | 13.60202 | 23906 ft | 410 kts | 212° |
| 2026-05-05 17:11 | 53.54982 | 13.57866 | 23902 ft | 410 kts | 212° |
| 2026-05-05 17:11 | 53.52486 | 13.55531 | 23917 ft | 411 kts | 212° |
| 2026-05-05 17:11 | 53.49992 | 13.53200 | 23902 ft | 410 kts | 212° |
| 2026-05-05 17:11 | 53.47497 | 13.50875 | 23883 ft | 411 kts | 212° |
| 2026-05-05 17:12 | 53.44990 | 13.48544 | 23896 ft | 412 kts | 212° |
| 2026-05-05 17:12 | 53.42482 | 13.46216 | 23898 ft | 412 kts | 211° |
| 2026-05-05 17:12 | 53.39972 | 13.43888 | 23898 ft | 412 kts | 212° |
| 2026-05-05 17:12 | 53.37459 | 13.41556 | 23898 ft | 412 kts | 211° |
| 2026-05-05 17:13 | 53.34986 | 13.39267 | 23897 ft | 412 kts | 211° |
| 2026-05-05 17:13 | 53.32473 | 13.36944 | 23895 ft | 412 kts | 211° |
| 2026-05-05 17:13 | 53.29965 | 13.34625 | 23895 ft | 412 kts | 211° |
| 2026-05-05 17:13 | 53.27456 | 13.32307 | 23893 ft | 412 kts | 211° |
| 2026-05-05 17:14 | 53.24941 | 13.29984 | 23881 ft | 412 kts | 211° |
| 2026-05-05 17:14 | 53.22429 | 13.27667 | 23890 ft | 413 kts | 211° |
| 2026-05-05 17:14 | 53.19917 | 13.25355 | 23890 ft | 413 kts | 211° |
| 2026-05-05 17:14 | 53.17402 | 13.23047 | 23890 ft | 413 kts | 211° |
| 2026-05-05 17:15 | 53.14885 | 13.20744 | 23890 ft | 413 kts | 211° |
| 2026-05-05 17:15 | 53.12366 | 13.18448 | 23888 ft | 413 kts | 211° |
| 2026-05-05 17:15 | 53.09848 | 13.16155 | 23666 ft | 412 kts | 211° |
| 2026-05-05 17:15 | 53.07336 | 13.13867 | 23428 ft | 411 kts | 211° |
| 2026-05-05 17:16 | 53.04832 | 13.11588 | 23155 ft | 410 kts | 211° |
| 2026-05-05 17:16 | 53.02334 | 13.09315 | 22888 ft | 409 kts | 211° |
| 2026-05-05 17:16 | 52.99840 | 13.07050 | 22598 ft | 407 kts | 210° |
| 2026-05-05 17:16 | 52.97364 | 13.04802 | 22325 ft | 405 kts | 210° |
| 2026-05-05 17:17 | 52.94890 | 13.02559 | 22059 ft | 404 kts | 210° |
| 2026-05-05 17:17 | 52.92425 | 13.00329 | 21674 ft | 403 kts | 210° |
| 2026-05-05 17:17 | 52.89975 | 12.98113 | 21205 ft | 401 kts | 210° |
| 2026-05-05 17:17 | 52.87534 | 12.95911 | 20747 ft | 399 kts | 210° |
| 2026-05-05 17:18 | 52.85091 | 12.93713 | 20291 ft | 397 kts | 210° |
| 2026-05-05 17:18 | 52.82670 | 12.91536 | 19843 ft | 395 kts | 210° |
| 2026-05-05 17:18 | 52.80290 | 12.89396 | 19407 ft | 394 kts | 210° |
| 2026-05-05 17:18 | 52.77891 | 12.87234 | 18949 ft | 392 kts | 210° |
| 2026-05-05 17:19 | 52.75496 | 12.85073 | 18499 ft | 391 kts | 210° |
| 2026-05-05 17:19 | 52.73113 | 12.82926 | 18010 ft | 389 kts | 210° |
| 2026-05-05 17:19 | 52.70742 | 12.80801 | 17473 ft | 387 kts | 210° |
| 2026-05-05 17:19 | 52.68381 | 12.78710 | 16946 ft | 384 kts | 207° |
| 2026-05-05 17:20 | 52.65862 | 12.77321 | 16424 ft | 383 kts | 191° |
| 2026-05-05 17:20 | 52.63209 | 12.77238 | 15914 ft | 383 kts | 174° |
| 2026-05-05 17:20 | 52.60627 | 12.78336 | 15426 ft | 383 kts | 165° |
| 2026-05-05 17:20 | 52.58091 | 12.79647 | 14922 ft | 380 kts | 165° |
| 2026-05-05 17:21 | 52.55582 | 12.80964 | 14428 ft | 377 kts | 164° |
| 2026-05-05 17:21 | 52.53090 | 12.82281 | 13944 ft | 374 kts | 164° |
| 2026-05-05 17:21 | 52.50620 | 12.83580 | 13459 ft | 371 kts | 164° |
| 2026-05-05 17:22 | 52.46560 | 12.85700 | 12578 ft | 366 kts | 164° |
| 2026-05-05 17:22 | 52.44132 | 12.86970 | 12049 ft | 364 kts | 164° |
| 2026-05-05 17:22 | 52.41726 | 12.88235 | 11557 ft | 361 kts | 164° |
| 2026-05-05 17:22 | 52.39342 | 12.89489 | 11046 ft | 358 kts | 164° |
| 2026-05-05 17:23 | 52.36988 | 12.90717 | 10553 ft | 352 kts | 164° |
| 2026-05-05 17:23 | 52.34673 | 12.91933 | 10066 ft | 346 kts | 164° |
| 2026-05-05 17:23 | 52.32394 | 12.93115 | 9572 ft | 341 kts | 164° |
| 2026-05-05 17:23 | 52.30145 | 12.94283 | 9047 ft | 337 kts | 164° |
| 2026-05-05 17:24 | 52.27928 | 12.95430 | 8514 ft | 332 kts | 164° |
| 2026-05-05 17:24 | 52.25737 | 12.96563 | 8025 ft | 328 kts | 164° |
| 2026-05-05 17:24 | 52.23601 | 12.97653 | 7819 ft | 314 kts | 164° |
| 2026-05-05 17:24 | 52.21611 | 12.98678 | 7841 ft | 295 kts | 164° |
| 2026-05-05 17:25 | 52.19716 | 12.99659 | 7839 ft | 277 kts | 164° |
| 2026-05-05 17:25 | 52.18499 | 13.00291 | 7840 ft | 265 kts | 164° |
| 2026-05-05 17:25 | 52.16269 | 13.01446 | 7840 ft | 243 kts | 164° |
| 2026-05-05 17:25 | 52.14658 | 13.02271 | 7429 ft | 245 kts | 164° |
| 2026-05-05 17:26 | 52.13011 | 13.03100 | 6933 ft | 251 kts | 164° |
| 2026-05-05 17:26 | 52.11324 | 13.03927 | 6448 ft | 255 kts | 162° |
| 2026-05-05 17:26 | 52.09772 | 13.05315 | 5943 ft | 259 kts | 136° |
| 2026-05-05 17:26 | 52.08818 | 13.07779 | 5433 ft | 261 kts | 106° |
| 2026-05-05 17:27 | 52.08740 | 13.10693 | 5055 ft | 257 kts | 75° |
| 2026-05-05 17:27 | 52.09556 | 13.13141 | 4998 ft | 240 kts | 44° |
| 2026-05-05 17:27 | 52.10936 | 13.14416 | 5003 ft | 223 kts | 11° |
| 2026-05-05 17:27 | 52.12456 | 13.14249 | 5006 ft | 221 kts | 342° |
| 2026-05-05 17:28 | 52.13892 | 13.13321 | 4926 ft | 224 kts | 336° |
| 2026-05-05 17:28 | 52.15319 | 13.12256 | 4556 ft | 226 kts | 335° |
| 2026-05-05 17:28 | 52.16744 | 13.11161 | 4173 ft | 227 kts | 335° |
| 2026-05-05 17:28 | 52.18150 | 13.10056 | 4010 ft | 219 kts | 334° |
| 2026-05-05 17:29 | 52.19518 | 13.08981 | 4009 ft | 218 kts | 335° |
| 2026-05-05 17:29 | 52.20958 | 13.08224 | 4002 ft | 217 kts | 356° |
| 2026-05-05 17:29 | 52.22403 | 13.08658 | 4010 ft | 214 kts | 27° |
| 2026-05-05 17:29 | 52.23680 | 13.09895 | 4017 ft | 214 kts | 34° |
| 2026-05-05 17:30 | 52.24914 | 13.11255 | 4014 ft | 214 kts | 35° |
| 2026-05-05 17:30 | 52.26145 | 13.12636 | 4012 ft | 215 kts | 35° |
| 2026-05-05 17:30 | 52.27357 | 13.13998 | 4016 ft | 206 kts | 35° |
| 2026-05-05 17:30 | 52.28483 | 13.15335 | 4002 ft | 197 kts | 44° |
| 2026-05-05 17:31 | 52.29256 | 13.17143 | 4006 ft | 196 kts | 67° |
| 2026-05-05 17:31 | 52.29757 | 13.19219 | 3867 ft | 196 kts | 68° |
| 2026-05-05 17:31 | 52.30254 | 13.21287 | 3642 ft | 196 kts | 68° |
| 2026-05-05 17:31 | 52.30753 | 13.23365 | 3390 ft | 197 kts | 68° |
| 2026-05-05 17:32 | 52.31257 | 13.25457 | 3130 ft | 199 kts | 68° |
| 2026-05-05 17:32 | 52.31762 | 13.27563 | 2864 ft | 199 kts | 68° |
| 2026-05-05 17:32 | 52.32261 | 13.29638 | 2627 ft | 193 kts | 68° |
| 2026-05-05 17:32 | 52.32731 | 13.31600 | 2349 ft | 183 kts | 67° |
| 2026-05-05 17:33 | 52.33182 | 13.33482 | 2101 ft | 172 kts | 68° |
| 2026-05-05 17:33 | 52.33599 | 13.35223 | 1862 ft | 155 kts | 67° |
| 2026-05-05 17:33 | 52.33974 | 13.36795 | 1680 ft | 144 kts | 68° |
| 2026-05-05 17:33 | 52.34330 | 13.38279 | 1477 ft | 138 kts | 67° |
| 2026-05-05 17:34 | 52.34677 | 13.39732 | 1337 ft | 134 kts | 66° |
| 2026-05-05 17:34 | 52.35012 | 13.41134 | 1117 ft | 131 kts | 67° |
| 2026-05-05 17:34 | 52.35339 | 13.42507 | 954 ft | 128 kts | 65° |
| 2026-05-05 17:34 | 52.35662 | 13.43857 | 788 ft | 126 kts | 68° |
| 2026-05-05 17:35 | 52.35977 | 13.45183 | 619 ft | 126 kts | 68° |
| 2026-05-05 17:35 | 52.36299 | 13.46532 | 461 ft | 125 kts | 67° |
| 2026-05-05 17:35 | 52.36619 | 13.47875 | 291 ft | 129 kts | 69° |
| 2026-05-05 17:35 | 52.36942 | 13.49221 | 162 ft | 119 kts | 68° |
| 2026-05-05 17:36 | 52.37165 | 13.50177 | 157 ft | 49 kts | 68° |
| 2026-05-05 17:36 | 52.37236 | 13.50478 | 156 ft | 27 kts | 69° |
| 2026-05-05 17:36 | 52.37301 | 13.50817 | 155 ft | 29 kts | 83° |
| 2026-05-05 17:36 | 52.37299 | 13.51059 | 157 ft | 17 kts | 96° |
| 2026-05-05 17:37 | 52.37290 | 13.51159 | 157 ft | 0 kts | 97° |
| 2026-05-05 17:38 | 52.37290 | 13.51162 | 157 ft | 2 kts | 97° |
| 2026-05-05 17:38 | 52.37284 | 13.51228 | 158 ft | 8 kts | 99° |
| 2026-05-05 17:39 | 52.37262 | 13.51335 | 158 ft | 11 kts | 129° |
| 2026-05-05 17:39 | 52.37206 | 13.51307 | 159 ft | 9 kts | 240° |
| 2026-05-05 17:39 | 52.37177 | 13.51209 | 159 ft | 13 kts | 245° |
| 2026-05-05 17:39 | 52.37144 | 13.51070 | 158 ft | 13 kts | 251° |
| 2026-05-05 17:40 | 52.37116 | 13.50939 | 158 ft | 12 kts | 251° |
| 2026-05-05 17:40 | 52.37088 | 13.50817 | 158 ft | 11 kts | 249° |
| 2026-05-05 17:40 | 52.37057 | 13.50702 | 158 ft | 11 kts | 246° |
| 2026-05-05 17:40 | 52.37022 | 13.50562 | 158 ft | 17 kts | 248° |
| 2026-05-05 17:41 | 52.36982 | 13.50398 | 159 ft | 15 kts | 248° |
| 2026-05-05 17:41 | 52.36947 | 13.50243 | 159 ft | 14 kts | 249° |
| 2026-05-05 17:41 | 52.36913 | 13.50098 | 159 ft | 13 kts | 249° |
| 2026-05-05 17:41 | 52.36883 | 13.50007 | 158 ft | 8 kts | 223° |
| 2026-05-05 17:42 | 52.36831 | 13.49998 | 159 ft | 9 kts | 160° |
| 2026-05-05 17:42 | 52.36775 | 13.50034 | 159 ft | 8 kts | 159° |
| 2026-05-05 17:42 | 52.36725 | 13.50066 | 159 ft | 7 kts | 159° |
| 2026-05-05 17:42 | 52.36659 | 13.50107 | 159 ft | 11 kts | 159° |
| 2026-05-05 17:43 | 52.36588 | 13.50151 | 159 ft | 13 kts | 159° |
| 2026-05-05 17:43 | 52.36499 | 13.50233 | 159 ft | 15 kts | 137° |
| 2026-05-05 17:43 | 52.36452 | 13.50311 | 159 ft | 7 kts | 134° |
| 2026-05-05 17:43 | 52.36423 | 13.50389 | 159 ft | 9 kts | 117° |
| 2026-05-05 17:44 | 52.36388 | 13.50462 | 159 ft | 8 kts | 126° |
| 2026-05-05 17:44 | 52.36377 | 13.50539 | 159 ft | 7 kts | 87° |
| 2026-05-05 17:44 | 52.36390 | 13.50618 | 159 ft | 8 kts | 70° |
| 2026-05-05 17:44 | 52.36393 | 13.50637 | 159 ft | 0 kts | 75° |
| 2026-05-05 17:45 | 52.36393 | 13.50636 | 159 ft | 0 kts | 75° |